sensor_id;sensor_type;location;lat;lon;timestamp;pressure;altitude;pressure_sealevel;temperature;humidity
28167;BME280;15455;53.376;-6.262;2023-11-21T00:02:22;102194.19;;;5.79;100.00
28167;BME280;15455;53.376;-6.262;2023-11-21T00:05:08;102191.34;;;5.73;100.00
28167;BME280;15455;53.376;-6.262;2023-11-21T00:07:55;102188.69;;;5.71;100.00
28167;BME280;15455;53.376;-6.262;2023-11-21T00:10:40;102191.28;;;5.71;100.00
28167;BME280;15455;53.376;-6.262;2023-11-21T00:13:26;102205.94;;;5.71;100.00
28167;BME280;15455;53.376;-6.262;2023-11-21T00:16:11;102210.16;;;5.69;100.00
28167;BME280;15455;53.376;-6.262;2023-11-21T00:18:57;102211.94;;;5.70;100.00
28167;BME280;15455;53.376;-6.262;2023-11-21T00:21:42;102217.19;;;5.71;100.00
28167;BME280;15455;53.376;-6.262;2023-11-21T00:24:30;102217.44;;;5.78;100.00
28167;BME280;15455;53.376;-6.262;2023-11-21T00:27:17;102201.13;;;5.80;100.00
28167;BME280;15455;53.376;-6.262;2023-11-21T00:30:03;102206.31;;;5.80;100.00
28167;BME280;15455;53.376;-6.262;2023-11-21T00:32:51;102206.00;;;5.72;100.00
28167;BME280;15455;53.376;-6.262;2023-11-21T00:35:37;102212.13;;;5.74;100.00
28167;BME280;15455;53.376;-6.262;2023-11-21T00:38:22;102219.84;;;5.73;100.00
28167;BME280;15455;53.376;-6.262;2023-11-21T00:41:08;102213.66;;;5.69;100.00
28167;BME280;15455;53.376;-6.262;2023-11-21T00:43:54;102217.94;;;5.69;100.00
28167;BME280;15455;53.376;-6.262;2023-11-21T00:46:40;102217.75;;;5.64;100.00
28167;BME280;15455;53.376;-6.262;2023-11-21T00:49:26;102228.91;;;5.63;100.00
28167;BME280;15455;53.376;-6.262;2023-11-21T00:52:13;102229.94;;;5.67;100.00
28167;BME280;15455;53.376;-6.262;2023-11-21T00:54:58;102229.25;;;5.71;100.00
28167;BME280;15455;53.376;-6.262;2023-11-21T00:57:45;102227.78;;;5.78;100.00
28167;BME280;15455;53.376;-6.262;2023-11-21T01:00:31;102217.59;;;5.81;100.00
28167;BME280;15455;53.376;-6.262;2023-11-21T01:03:17;102226.91;;;5.77;100.00
28167;BME280;15455;53.376;-6.262;2023-11-21T01:06:03;102219.09;;;5.76;100.00
28167;BME280;15455;53.376;-6.262;2023-11-21T01:08:49;102220.88;;;5.77;100.00
28167;BME280;15455;53.376;-6.262;2023-11-21T01:11:35;102219.09;;;5.76;100.00
28167;BME280;15455;53.376;-6.262;2023-11-21T01:14:21;102224.94;;;5.71;100.00
28167;BME280;15455;53.376;-6.262;2023-11-21T01:17:08;102220.81;;;5.75;100.00
28167;BME280;15455;53.376;-6.262;2023-11-21T01:19:54;102241.47;;;5.73;100.00
28167;BME280;15455;53.376;-6.262;2023-11-21T01:22:42;102251.59;;;5.69;100.00
28167;BME280;15455;53.376;-6.262;2023-11-21T01:25:28;102263.69;;;5.68;100.00
28167;BME280;15455;53.376;-6.262;2023-11-21T01:28:14;102270.53;;;5.66;100.00
28167;BME280;15455;53.376;-6.262;2023-11-21T01:30:59;102285.16;;;5.66;100.00
28167;BME280;15455;53.376;-6.262;2023-11-21T01:33:45;102281.75;;;5.67;100.00
28167;BME280;15455;53.376;-6.262;2023-11-21T01:36:31;102287.63;;;5.63;100.00
28167;BME280;15455;53.376;-6.262;2023-11-21T01:39:20;102291.72;;;5.57;100.00
28167;BME280;15455;53.376;-6.262;2023-11-21T01:42:09;102300.06;;;5.50;100.00
28167;BME280;15455;53.376;-6.262;2023-11-21T01:44:54;102305.69;;;5.42;100.00
28167;BME280;15455;53.376;-6.262;2023-11-21T01:47:41;102306.09;;;5.31;100.00
28167;BME280;15455;53.376;-6.262;2023-11-21T01:50:29;102310.41;;;5.31;100.00
28167;BME280;15455;53.376;-6.262;2023-11-21T01:53:14;102325.94;;;5.31;100.00
28167;BME280;15455;53.376;-6.262;2023-11-21T01:56:00;102334.38;;;5.27;100.00
28167;BME280;15455;53.376;-6.262;2023-11-21T01:58:46;102332.41;;;5.21;100.00
28167;BME280;15455;53.376;-6.262;2023-11-21T02:01:33;102334.94;;;5.19;100.00
28167;BME280;15455;53.376;-6.262;2023-11-21T02:04:19;102326.97;;;5.15;100.00
28167;BME280;15455;53.376;-6.262;2023-11-21T02:07:06;102328.50;;;5.11;100.00
28167;BME280;15455;53.376;-6.262;2023-11-21T02:09:52;102328.75;;;5.16;100.00
28167;BME280;15455;53.376;-6.262;2023-11-21T02:12:38;102337.50;;;5.19;100.00
28167;BME280;15455;53.376;-6.262;2023-11-21T02:15:24;102329.06;;;5.24;100.00
28167;BME280;15455;53.376;-6.262;2023-11-21T02:18:14;102326.47;;;5.24;100.00
28167;BME280;15455;53.376;-6.262;2023-11-21T02:21:00;102332.78;;;5.29;100.00
28167;BME280;15455;53.376;-6.262;2023-11-21T02:23:48;102331.78;;;5.27;100.00
28167;BME280;15455;53.376;-6.262;2023-11-21T02:26:33;102337.03;;;5.28;100.00
28167;BME280;15455;53.376;-6.262;2023-11-21T02:29:19;102332.84;;;5.30;100.00
28167;BME280;15455;53.376;-6.262;2023-11-21T02:32:07;102325.69;;;5.25;100.00
28167;BME280;15455;53.376;-6.262;2023-11-21T02:34:55;102334.84;;;5.18;100.00
28167;BME280;15455;53.376;-6.262;2023-11-21T02:37:42;102343.44;;;5.17;100.00
28167;BME280;15455;53.376;-6.262;2023-11-21T02:40:27;102344.41;;;5.19;100.00
28167;BME280;15455;53.376;-6.262;2023-11-21T02:43:12;102356.31;;;5.15;100.00
28167;BME280;15455;53.376;-6.262;2023-11-21T02:45:58;102357.88;;;5.12;100.00
28167;BME280;15455;53.376;-6.262;2023-11-21T02:48:43;102365.84;;;5.16;100.00
28167;BME280;15455;53.376;-6.262;2023-11-21T02:51:30;102371.03;;;5.16;100.00
28167;BME280;15455;53.376;-6.262;2023-11-21T02:54:15;102380.50;;;5.16;100.00
28167;BME280;15455;53.376;-6.262;2023-11-21T02:57:04;102390.78;;;5.14;100.00
28167;BME280;15455;53.376;-6.262;2023-11-21T02:59:51;102408.91;;;5.14;100.00
28167;BME280;15455;53.376;-6.262;2023-11-21T03:02:37;102404.53;;;5.13;100.00
28167;BME280;15455;53.376;-6.262;2023-11-21T03:05:25;102422.50;;;5.10;100.00
28167;BME280;15455;53.376;-6.262;2023-11-21T03:08:11;102425.63;;;5.03;100.00
28167;BME280;15455;53.376;-6.262;2023-11-21T03:10:56;102415.06;;;4.98;100.00
28167;BME280;15455;53.376;-6.262;2023-11-21T03:13:42;102421.69;;;4.93;100.00
28167;BME280;15455;53.376;-6.262;2023-11-21T03:16:28;102432.78;;;4.91;100.00
28167;BME280;15455;53.376;-6.262;2023-11-21T03:19:14;102423.09;;;4.86;100.00
28167;BME280;15455;53.376;-6.262;2023-11-21T03:22:00;102423.03;;;4.85;100.00
28167;BME280;15455;53.376;-6.262;2023-11-21T03:24:45;102421.34;;;4.85;100.00
28167;BME280;15455;53.376;-6.262;2023-11-21T03:27:31;102422.00;;;4.81;100.00
28167;BME280;15455;53.376;-6.262;2023-11-21T03:30:17;102433.75;;;4.75;100.00
28167;BME280;15455;53.376;-6.262;2023-11-21T03:33:02;102445.59;;;4.69;100.00
28167;BME280;15455;53.376;-6.262;2023-11-21T03:35:48;102447.03;;;4.64;100.00
28167;BME280;15455;53.376;-6.262;2023-11-21T03:38:34;102460.31;;;4.54;100.00
28167;BME280;15455;53.376;-6.262;2023-11-21T03:41:20;102467.53;;;4.43;100.00
28167;BME280;15455;53.376;-6.262;2023-11-21T03:44:05;102466.91;;;4.31;100.00
28167;BME280;15455;53.376;-6.262;2023-11-21T03:46:50;102469.09;;;4.23;100.00
28167;BME280;15455;53.376;-6.262;2023-11-21T03:49:36;102457.81;;;4.21;100.00
28167;BME280;15455;53.376;-6.262;2023-11-21T03:52:22;102453.78;;;4.26;100.00
28167;BME280;15455;53.376;-6.262;2023-11-21T03:55:09;102463.84;;;4.38;100.00
28167;BME280;15455;53.376;-6.262;2023-11-21T03:58:00;102459.44;;;4.54;100.00
28167;BME280;15455;53.376;-6.262;2023-11-21T04:00:46;102465.28;;;4.67;100.00
28167;BME280;15455;53.376;-6.262;2023-11-21T04:03:34;102463.44;;;4.65;100.00
28167;BME280;15455;53.376;-6.262;2023-11-21T04:06:20;102465.00;;;4.61;100.00
28167;BME280;15455;53.376;-6.262;2023-11-21T04:09:05;102466.53;;;4.58;100.00
28167;BME280;15455;53.376;-6.262;2023-11-21T04:11:51;102473.09;;;4.51;100.00
28167;BME280;15455;53.376;-6.262;2023-11-21T04:14:38;102472.28;;;4.52;100.00
28167;BME280;15455;53.376;-6.262;2023-11-21T04:17:23;102474.41;;;4.43;100.00
28167;BME280;15455;53.376;-6.262;2023-11-21T04:20:09;102485.25;;;4.35;100.00
28167;BME280;15455;53.376;-6.262;2023-11-21T04:22:56;102489.38;;;4.32;100.00
28167;BME280;15455;53.376;-6.262;2023-11-21T04:25:41;102481.22;;;4.24;100.00
28167;BME280;15455;53.376;-6.262;2023-11-21T04:28:27;102489.78;;;4.23;100.00
28167;BME280;15455;53.376;-6.262;2023-11-21T04:31:13;102482.00;;;4.23;100.00
28167;BME280;15455;53.376;-6.262;2023-11-21T04:33:58;102488.00;;;4.22;100.00
28167;BME280;15455;53.376;-6.262;2023-11-21T04:36:44;102493.69;;;4.15;100.00
28167;BME280;15455;53.376;-6.262;2023-11-21T04:39:30;102497.13;;;4.15;100.00
28167;BME280;15455;53.376;-6.262;2023-11-21T04:42:16;102502.31;;;4.15;100.00
28167;BME280;15455;53.376;-6.262;2023-11-21T04:45:03;102502.31;;;4.15;100.00
28167;BME280;15455;53.376;-6.262;2023-11-21T04:47:53;102517.56;;;4.11;100.00
28167;BME280;15455;53.376;-6.262;2023-11-21T04:50:39;102520.72;;;4.05;100.00
28167;BME280;15455;53.376;-6.262;2023-11-21T04:53:24;102524.50;;;3.95;100.00
28167;BME280;15455;53.376;-6.262;2023-11-21T04:56:09;102529.19;;;3.86;100.00
28167;BME280;15455;53.376;-6.262;2023-11-21T04:58:55;102530.28;;;3.75;100.00
28167;BME280;15455;53.376;-6.262;2023-11-21T05:01:41;102534.78;;;3.62;100.00
28167;BME280;15455;53.376;-6.262;2023-11-21T05:04:27;102540.97;;;3.50;100.00
28167;BME280;15455;53.376;-6.262;2023-11-21T05:07:13;102549.97;;;3.41;100.00
28167;BME280;15455;53.376;-6.262;2023-11-21T05:09:58;102557.41;;;3.35;100.00
28167;BME280;15455;53.376;-6.262;2023-11-21T05:12:44;102569.47;;;3.36;100.00
28167;BME280;15455;53.376;-6.262;2023-11-21T05:15:30;102567.13;;;3.41;100.00
28167;BME280;15455;53.376;-6.262;2023-11-21T05:18:15;102562.81;;;3.40;100.00
28167;BME280;15455;53.376;-6.262;2023-11-21T05:21:01;102566.34;;;3.42;100.00
28167;BME280;15455;53.376;-6.262;2023-11-21T05:23:46;102568.94;;;3.42;100.00
28167;BME280;15455;53.376;-6.262;2023-11-21T05:26:32;102578.53;;;3.44;100.00
28167;BME280;15455;53.376;-6.262;2023-11-21T05:29:17;102582.00;;;3.45;100.00
28167;BME280;15455;53.376;-6.262;2023-11-21T05:32:03;102598.41;;;3.45;100.00
28167;BME280;15455;53.376;-6.262;2023-11-21T05:34:49;102602.56;;;3.43;100.00
28167;BME280;15455;53.376;-6.262;2023-11-21T05:37:35;102599.91;;;3.42;100.00
28167;BME280;15455;53.376;-6.262;2023-11-21T05:40:21;102613.88;;;3.45;100.00
28167;BME280;15455;53.376;-6.262;2023-11-21T05:43:07;102620.88;;;3.48;100.00
28167;BME280;15455;53.376;-6.262;2023-11-21T05:45:53;102617.78;;;3.54;100.00
28167;BME280;15455;53.376;-6.262;2023-11-21T05:48:39;102611.34;;;3.62;100.00
28167;BME280;15455;53.376;-6.262;2023-11-21T05:51:24;102624.69;;;3.70;100.00
28167;BME280;15455;53.376;-6.262;2023-11-21T05:54:09;102620.84;;;3.78;100.00
28167;BME280;15455;53.376;-6.262;2023-11-21T05:56:55;102628.84;;;3.82;100.00
28167;BME280;15455;53.376;-6.262;2023-11-21T05:59:40;102631.25;;;3.79;100.00
28167;BME280;15455;53.376;-6.262;2023-11-21T06:02:26;102625.31;;;3.80;100.00
28167;BME280;15455;53.376;-6.262;2023-11-21T06:05:12;102628.59;;;3.78;100.00
28167;BME280;15455;53.376;-6.262;2023-11-21T06:07:58;102631.56;;;3.69;100.00
28167;BME280;15455;53.376;-6.262;2023-11-21T06:10:46;102630.41;;;3.49;100.00
28167;BME280;15455;53.376;-6.262;2023-11-21T06:13:34;102620.28;;;3.37;100.00
28167;BME280;15455;53.376;-6.262;2023-11-21T06:16:20;102623.69;;;3.21;100.00
28167;BME280;15455;53.376;-6.262;2023-11-21T06:19:06;102626.34;;;3.23;100.00
28167;BME280;15455;53.376;-6.262;2023-11-21T06:21:52;102632.69;;;3.28;100.00
28167;BME280;15455;53.376;-6.262;2023-11-21T06:24:37;102633.19;;;3.37;100.00
28167;BME280;15455;53.376;-6.262;2023-11-21T06:27:23;102641.38;;;3.45;100.00
28167;BME280;15455;53.376;-6.262;2023-11-21T06:30:10;102644.13;;;3.48;100.00
28167;BME280;15455;53.376;-6.262;2023-11-21T06:32:57;102651.06;;;3.49;100.00
28167;BME280;15455;53.376;-6.262;2023-11-21T06:35:43;102655.44;;;3.50;100.00
28167;BME280;15455;53.376;-6.262;2023-11-21T06:38:28;102654.28;;;3.45;100.00
28167;BME280;15455;53.376;-6.262;2023-11-21T06:41:15;102660.97;;;3.41;100.00
28167;BME280;15455;53.376;-6.262;2023-11-21T06:44:00;102660.72;;;3.37;100.00
28167;BME280;15455;53.376;-6.262;2023-11-21T06:46:46;102659.09;;;3.24;100.00
28167;BME280;15455;53.376;-6.262;2023-11-21T06:49:31;102657.13;;;3.20;100.00
28167;BME280;15455;53.376;-6.262;2023-11-21T06:52:17;102665.50;;;3.16;100.00
28167;BME280;15455;53.376;-6.262;2023-11-21T06:55:04;102656.69;;;3.12;100.00
28167;BME280;15455;53.376;-6.262;2023-11-21T06:57:50;102667.44;;;3.05;100.00
28167;BME280;15455;53.376;-6.262;2023-11-21T07:00:37;102673.66;;;2.93;100.00
28167;BME280;15455;53.376;-6.262;2023-11-21T07:03:23;102680.47;;;2.78;100.00
28167;BME280;15455;53.376;-6.262;2023-11-21T07:06:09;102688.16;;;2.63;100.00
28167;BME280;15455;53.376;-6.262;2023-11-21T07:08:54;102693.22;;;2.48;100.00
28167;BME280;15455;53.376;-6.262;2023-11-21T07:11:40;102704.28;;;2.46;100.00
28167;BME280;15455;53.376;-6.262;2023-11-21T07:14:28;102701.47;;;2.42;100.00
28167;BME280;15455;53.376;-6.262;2023-11-21T07:17:13;102714.44;;;2.44;100.00
28167;BME280;15455;53.376;-6.262;2023-11-21T07:19:59;102716.63;;;2.51;100.00
28167;BME280;15455;53.376;-6.262;2023-11-21T07:22:45;102724.16;;;2.62;100.00
28167;BME280;15455;53.376;-6.262;2023-11-21T07:25:31;102731.56;;;2.70;100.00
28167;BME280;15455;53.376;-6.262;2023-11-21T07:28:19;102724.91;;;2.74;100.00
28167;BME280;15455;53.376;-6.262;2023-11-21T07:31:05;102732.31;;;2.83;100.00
28167;BME280;15455;53.376;-6.262;2023-11-21T07:33:51;102750.84;;;2.90;100.00
28167;BME280;15455;53.376;-6.262;2023-11-21T07:36:36;102751.81;;;2.92;100.00
28167;BME280;15455;53.376;-6.262;2023-11-21T07:39:22;102754.56;;;2.95;100.00
28167;BME280;15455;53.376;-6.262;2023-11-21T07:42:07;102746.84;;;2.95;100.00
28167;BME280;15455;53.376;-6.262;2023-11-21T07:44:54;102751.03;;;2.93;100.00
28167;BME280;15455;53.376;-6.262;2023-11-21T07:47:39;102759.56;;;2.92;100.00
28167;BME280;15455;53.376;-6.262;2023-11-21T07:50:25;102773.84;;;2.87;100.00
28167;BME280;15455;53.376;-6.262;2023-11-21T07:53:12;102772.59;;;2.81;100.00
28167;BME280;15455;53.376;-6.262;2023-11-21T07:55:58;102776.56;;;2.75;100.00
28167;BME280;15455;53.376;-6.262;2023-11-21T07:58:44;102778.25;;;2.75;100.00
28167;BME280;15455;53.376;-6.262;2023-11-21T08:01:30;102776.47;;;2.74;100.00
28167;BME280;15455;53.376;-6.262;2023-11-21T08:04:17;102772.59;;;2.81;100.00
28167;BME280;15455;53.376;-6.262;2023-11-21T08:07:04;102784.06;;;2.86;100.00
28167;BME280;15455;53.376;-6.262;2023-11-21T08:09:49;102790.22;;;2.88;100.00
28167;BME280;15455;53.376;-6.262;2023-11-21T08:12:35;102795.38;;;2.88;100.00
28167;BME280;15455;53.376;-6.262;2023-11-21T08:15:20;102797.69;;;2.83;100.00
28167;BME280;15455;53.376;-6.262;2023-11-21T08:18:06;102806.91;;;2.80;100.00
28167;BME280;15455;53.376;-6.262;2023-11-21T08:20:53;102818.19;;;2.82;100.00
28167;BME280;15455;53.376;-6.262;2023-11-21T08:23:40;102806.38;;;2.85;100.00
28167;BME280;15455;53.376;-6.262;2023-11-21T08:26:25;102803.91;;;2.87;100.00
28167;BME280;15455;53.376;-6.262;2023-11-21T08:29:11;102807.69;;;2.92;100.00
28167;BME280;15455;53.376;-6.262;2023-11-21T08:31:56;102802.09;;;2.99;100.00
28167;BME280;15455;53.376;-6.262;2023-11-21T08:34:42;102804.97;;;3.04;100.00
28167;BME280;15455;53.376;-6.262;2023-11-21T08:37:29;102817.34;;;3.09;100.00
28167;BME280;15455;53.376;-6.262;2023-11-21T08:40:15;102828.63;;;3.11;100.00
28167;BME280;15455;53.376;-6.262;2023-11-21T08:43:02;102831.91;;;3.09;100.00
28167;BME280;15455;53.376;-6.262;2023-11-21T08:45:49;102841.34;;;3.08;100.00
28167;BME280;15455;53.376;-6.262;2023-11-21T08:48:36;102838.94;;;3.11;100.00
28167;BME280;15455;53.376;-6.262;2023-11-21T08:51:22;102844.31;;;3.15;100.00
28167;BME280;15455;53.376;-6.262;2023-11-21T08:54:07;102850.56;;;3.18;100.00
28167;BME280;15455;53.376;-6.262;2023-11-21T08:56:54;102854.19;;;3.22;100.00
28167;BME280;15455;53.376;-6.262;2023-11-21T08:59:40;102875.25;;;3.28;100.00
28167;BME280;15455;53.376;-6.262;2023-11-21T09:02:26;102872.13;;;3.34;100.00
28167;BME280;15455;53.376;-6.262;2023-11-21T09:05:12;102868.66;;;3.33;100.00
28167;BME280;15455;53.376;-6.262;2023-11-21T09:07:59;102866.88;;;3.32;100.00
28167;BME280;15455;53.376;-6.262;2023-11-21T09:10:44;102864.50;;;3.35;100.00
28167;BME280;15455;53.376;-6.262;2023-11-21T09:13:32;102865.66;;;3.40;100.00
28167;BME280;15455;53.376;-6.262;2023-11-21T09:16:18;102872.28;;;3.50;100.00
28167;BME280;15455;53.376;-6.262;2023-11-21T09:19:03;102866.78;;;3.59;100.00
28167;BME280;15455;53.376;-6.262;2023-11-21T09:21:50;102857.81;;;3.67;100.00
28167;BME280;15455;53.376;-6.262;2023-11-21T09:24:36;102864.94;;;3.71;100.00
28167;BME280;15455;53.376;-6.262;2023-11-21T09:27:24;102875.72;;;3.79;100.00
28167;BME280;15455;53.376;-6.262;2023-11-21T09:30:13;102892.03;;;3.78;100.00
28167;BME280;15455;53.376;-6.262;2023-11-21T09:33:03;102887.72;;;3.78;100.00
28167;BME280;15455;53.376;-6.262;2023-11-21T09:35:51;102881.06;;;3.82;100.00
28167;BME280;15455;53.376;-6.262;2023-11-21T09:38:37;102869.59;;;3.92;100.00
28167;BME280;15455;53.376;-6.262;2023-11-21T09:41:50;102869.25;;;4.00;100.00
28167;BME280;15455;53.376;-6.262;2023-11-21T09:44:48;102875.78;;;4.09;100.00
28167;BME280;15455;53.376;-6.262;2023-11-21T09:47:38;102867.38;;;4.13;100.00
28167;BME280;15455;53.376;-6.262;2023-11-21T09:50:25;102874.69;;;4.20;100.00
28167;BME280;15455;53.376;-6.262;2023-11-21T09:53:21;102871.94;;;4.32;100.00
28167;BME280;15455;53.376;-6.262;2023-11-21T09:56:09;102857.66;;;4.39;100.00
28167;BME280;15455;53.376;-6.262;2023-11-21T09:58:54;102846.22;;;4.50;100.00
28167;BME280;15455;53.376;-6.262;2023-11-21T10:01:42;102847.81;;;4.63;100.00
28167;BME280;15455;53.376;-6.262;2023-11-21T10:04:28;102841.38;;;4.71;100.00
28167;BME280;15455;53.376;-6.262;2023-11-21T10:07:17;102841.72;;;4.77;100.00
28167;BME280;15455;53.376;-6.262;2023-11-21T10:10:05;102850.78;;;4.85;100.00
28167;BME280;15455;53.376;-6.262;2023-11-21T10:12:55;102847.19;;;4.98;100.00
28167;BME280;15455;53.376;-6.262;2023-11-21T10:15:42;102830.50;;;5.10;100.00
28167;BME280;15455;53.376;-6.262;2023-11-21T10:18:33;102825.13;;;5.21;100.00
28167;BME280;15455;53.376;-6.262;2023-11-21T10:21:19;102814.28;;;5.29;100.00
28167;BME280;15455;53.376;-6.262;2023-11-21T10:24:05;102828.50;;;5.37;100.00
28167;BME280;15455;53.376;-6.262;2023-11-21T10:26:51;102834.81;;;5.42;100.00
28167;BME280;15455;53.376;-6.262;2023-11-21T10:29:39;102833.03;;;5.41;100.00
28167;BME280;15455;53.376;-6.262;2023-11-21T10:32:28;102834.97;;;5.45;100.00
28167;BME280;15455;53.376;-6.262;2023-11-21T10:35:15;102828.16;;;5.47;100.00
28167;BME280;15455;53.376;-6.262;2023-11-21T10:38:01;102825.16;;;5.56;100.00
28167;BME280;15455;53.376;-6.262;2023-11-21T10:40:47;102826.53;;;5.66;100.00
28167;BME280;15455;53.376;-6.262;2023-11-21T10:43:33;102834.94;;;5.78;100.00
28167;BME280;15455;53.376;-6.262;2023-11-21T10:46:19;102840.59;;;5.87;100.00
28167;BME280;15455;53.376;-6.262;2023-11-21T10:49:06;102836.69;;;5.96;100.00
28167;BME280;15455;53.376;-6.262;2023-11-21T10:51:53;102832.97;;;6.07;100.00
28167;BME280;15455;53.376;-6.262;2023-11-21T10:54:39;102823.03;;;6.16;100.00
28167;BME280;15455;53.376;-6.262;2023-11-21T10:57:24;102822.81;;;6.30;100.00
28167;BME280;15455;53.376;-6.262;2023-11-21T11:00:11;102825.88;;;6.39;100.00
28167;BME280;15455;53.376;-6.262;2023-11-21T11:02:59;102816.59;;;6.44;100.00
28167;BME280;15455;53.376;-6.262;2023-11-21T11:05:45;102828.09;;;6.49;100.00
28167;BME280;15455;53.376;-6.262;2023-11-21T11:08:39;102847.13;;;6.50;100.00
28167;BME280;15455;53.376;-6.262;2023-11-21T11:11:25;102849.28;;;6.58;100.00
28167;BME280;15455;53.376;-6.262;2023-11-21T11:14:11;102842.75;;;6.67;100.00
28167;BME280;15455;53.376;-6.262;2023-11-21T11:16:58;102845.69;;;6.74;100.00
28167;BME280;15455;53.376;-6.262;2023-11-21T11:19:46;102830.44;;;6.81;100.00
28167;BME280;15455;53.376;-6.262;2023-11-21T11:23:37;102827.44;;;6.91;100.00
28167;BME280;15455;53.376;-6.262;2023-11-21T11:26:24;102827.78;;;6.99;100.00
28167;BME280;15455;53.376;-6.262;2023-11-21T11:29:28;102841.03;;;7.05;100.00
28167;BME280;15455;53.376;-6.262;2023-11-21T11:32:53;102839.16;;;7.20;100.00
28167;BME280;15455;53.376;-6.262;2023-11-21T11:38:36;102811.53;;;7.42;100.00
28167;BME280;15455;53.376;-6.262;2023-11-21T11:41:31;102801.56;;;7.51;100.00
28167;BME280;15455;53.376;-6.262;2023-11-21T11:47:37;102801.66;;;7.74;100.00
28167;BME280;15455;53.376;-6.262;2023-11-21T11:50:25;102814.13;;;7.82;100.00
28167;BME280;15455;53.376;-6.262;2023-11-21T11:53:13;102800.63;;;7.91;100.00
28167;BME280;15455;53.376;-6.262;2023-11-21T11:56:19;102791.34;;;7.96;100.00
28167;BME280;15455;53.376;-6.262;2023-11-21T11:59:05;102789.88;;;8.03;100.00
28167;BME280;15455;53.376;-6.262;2023-11-21T12:01:56;102785.69;;;8.07;100.00
28167;BME280;15455;53.376;-6.262;2023-11-21T12:04:43;102786.44;;;8.04;100.00
28167;BME280;15455;53.376;-6.262;2023-11-21T12:07:48;102795.97;;;8.04;100.00
28167;BME280;15455;53.376;-6.262;2023-11-21T12:10:38;102815.88;;;8.03;100.00
28167;BME280;15455;53.376;-6.262;2023-11-21T12:13:25;102809.59;;;7.98;100.00
28167;BME280;15455;53.376;-6.262;2023-11-21T12:16:13;102806.81;;;7.93;100.00
28167;BME280;15455;53.376;-6.262;2023-11-21T12:18:59;102803.13;;;7.88;100.00
28167;BME280;15455;53.376;-6.262;2023-11-21T12:21:46;102793.34;;;7.82;100.00
28167;BME280;15455;53.376;-6.262;2023-11-21T12:24:32;102792.28;;;7.77;100.00
28167;BME280;15455;53.376;-6.262;2023-11-21T12:27:18;102813.00;;;7.76;100.00
28167;BME280;15455;53.376;-6.262;2023-11-21T12:30:03;102820.81;;;7.76;100.00
28167;BME280;15455;53.376;-6.262;2023-11-21T12:32:54;102820.03;;;7.78;100.00
28167;BME280;15455;53.376;-6.262;2023-11-21T12:35:41;102809.06;;;7.86;100.00
28167;BME280;15455;53.376;-6.262;2023-11-21T12:38:34;102806.94;;;7.96;100.00
28167;BME280;15455;53.376;-6.262;2023-11-21T12:41:23;102799.44;;;8.04;100.00
28167;BME280;15455;53.376;-6.262;2023-11-21T12:44:11;102804.91;;;8.10;100.00
28167;BME280;15455;53.376;-6.262;2023-11-21T12:46:57;102825.91;;;8.15;100.00
28167;BME280;15455;53.376;-6.262;2023-11-21T12:49:43;102827.47;;;8.11;100.00
28167;BME280;15455;53.376;-6.262;2023-11-21T12:52:29;102832.63;;;8.10;100.00
28167;BME280;15455;53.376;-6.262;2023-11-21T12:55:21;102833.59;;;8.12;100.00
28167;BME280;15455;53.376;-6.262;2023-11-21T12:58:08;102833.53;;;8.10;100.00
28167;BME280;15455;53.376;-6.262;2023-11-21T13:00:57;102828.03;;;8.04;100.00
28167;BME280;15455;53.376;-6.262;2023-11-21T13:03:48;102838.25;;;7.99;100.00
28167;BME280;15455;53.376;-6.262;2023-11-21T13:06:36;102843.34;;;7.96;100.00
28167;BME280;15455;53.376;-6.262;2023-11-21T13:09:26;102840.78;;;7.98;100.00
28167;BME280;15455;53.376;-6.262;2023-11-21T13:12:13;102833.94;;;8.00;100.00
28167;BME280;15455;53.376;-6.262;2023-11-21T13:15:04;102832.94;;;7.96;100.00
28167;BME280;15455;53.376;-6.262;2023-11-21T13:17:50;102821.66;;;7.96;100.00
28167;BME280;15455;53.376;-6.262;2023-11-21T13:20:36;102817.34;;;7.96;100.00
28167;BME280;15455;53.376;-6.262;2023-11-21T13:23:22;102824.31;;;7.97;100.00
28167;BME280;15455;53.376;-6.262;2023-11-21T13:26:09;102827.84;;;7.99;100.00
28167;BME280;15455;53.376;-6.262;2023-11-21T13:28:58;102843.53;;;8.01;100.00
28167;BME280;15455;53.376;-6.262;2023-11-21T13:31:44;102841.78;;;8.02;100.00
28167;BME280;15455;53.376;-6.262;2023-11-21T13:34:30;102847.00;;;8.02;100.00
28167;BME280;15455;53.376;-6.262;2023-11-21T13:37:18;102839.28;;;8.03;100.00
28167;BME280;15455;53.376;-6.262;2023-11-21T13:40:04;102841.91;;;8.03;100.00
28167;BME280;15455;53.376;-6.262;2023-11-21T13:43:00;102847.16;;;8.05;100.00
28167;BME280;15455;53.376;-6.262;2023-11-21T13:45:49;102852.47;;;8.08;100.00
28167;BME280;15455;53.376;-6.262;2023-11-21T13:48:43;102859.31;;;8.06;100.00
28167;BME280;15455;53.376;-6.262;2023-11-21T13:51:36;102849.81;;;8.06;100.00
28167;BME280;15455;53.376;-6.262;2023-11-21T13:54:30;102838.56;;;8.07;100.00
28167;BME280;15455;53.376;-6.262;2023-11-21T13:57:16;102839.34;;;8.05;100.00
28167;BME280;15455;53.376;-6.262;2023-11-21T14:00:01;102843.59;;;8.03;100.00
28167;BME280;15455;53.376;-6.262;2023-11-21T14:02:48;102853.16;;;8.04;100.00
28167;BME280;15455;53.376;-6.262;2023-11-21T14:05:34;102864.44;;;8.04;100.00
28167;BME280;15455;53.376;-6.262;2023-11-21T14:08:20;102869.03;;;8.10;100.00
28167;BME280;15455;53.376;-6.262;2023-11-21T14:11:07;102858.75;;;8.13;100.00
28167;BME280;15455;53.376;-6.262;2023-11-21T14:13:52;102856.47;;;8.21;100.00
28167;BME280;15455;53.376;-6.262;2023-11-21T14:16:39;102850.38;;;8.20;100.00
28167;BME280;15455;53.376;-6.262;2023-11-21T14:19:24;102851.47;;;8.25;100.00
28167;BME280;15455;53.376;-6.262;2023-11-21T14:22:17;102853.25;;;8.26;100.00
28167;BME280;15455;53.376;-6.262;2023-11-21T14:25:04;102861.88;;;8.25;100.00
28167;BME280;15455;53.376;-6.262;2023-11-21T14:27:50;102872.34;;;8.27;100.00
28167;BME280;15455;53.376;-6.262;2023-11-21T14:30:36;102879.38;;;8.29;100.00